sensor_id;sensor_type;location;lat;lon;timestamp;P1;durP1;ratioP1;P2;durP2;ratioP2
77038;SDS011;65970;50.476;4.840;2023-03-01T00:04:41;5.50;;;3.42;;
77038;SDS011;65970;50.476;4.840;2023-03-01T00:09:41;5.45;;;3.75;;
77038;SDS011;65970;50.476;4.840;2023-03-01T00:14:42;8.57;;;4.03;;
77038;SDS011;65970;50.476;4.840;2023-03-01T00:19:43;5.47;;;3.65;;
77038;SDS011;65970;50.476;4.840;2023-03-01T00:24:43;5.07;;;3.53;;
77038;SDS011;65970;50.476;4.840;2023-03-01T00:29:44;4.40;;;3.92;;
77038;SDS011;65970;50.476;4.840;2023-03-01T00:34:45;6.72;;;3.95;;
77038;SDS011;65970;50.476;4.840;2023-03-01T00:39:46;4.82;;;3.92;;
77038;SDS011;65970;50.476;4.840;2023-03-01T00:44:46;4.60;;;3.90;;
77038;SDS011;65970;50.476;4.840;2023-03-01T00:49:47;7.15;;;4.07;;
77038;SDS011;65970;50.476;4.840;2023-03-01T00:54:48;6.07;;;3.88;;
77038;SDS011;65970;50.476;4.840;2023-03-01T00:59:51;7.28;;;3.75;;
77038;SDS011;65970;50.476;4.840;2023-03-01T01:04:52;6.18;;;4.18;;
77038;SDS011;65970;50.476;4.840;2023-03-01T01:09:52;7.13;;;4.15;;
77038;SDS011;65970;50.476;4.840;2023-03-01T01:14:53;4.30;;;3.88;;
77038;SDS011;65970;50.476;4.840;2023-03-01T01:19:53;4.93;;;4.13;;
77038;SDS011;65970;50.476;4.840;2023-03-01T01:24:54;4.93;;;3.78;;
77038;SDS011;65970;50.476;4.840;2023-03-01T01:29:55;6.75;;;4.13;;
77038;SDS011;65970;50.476;4.840;2023-03-01T01:34:55;6.90;;;3.97;;
77038;SDS011;65970;50.476;4.840;2023-03-01T01:39:59;5.22;;;4.18;;
77038;SDS011;65970;50.476;4.840;2023-03-01T01:50:26;4.90;;;3.78;;
77038;SDS011;65970;50.476;4.840;2023-03-01T01:55:27;7.05;;;4.55;;
77038;SDS011;65970;50.476;4.840;2023-03-01T02:00:29;5.40;;;4.07;;
77038;SDS011;65970;50.476;4.840;2023-03-01T02:10:33;4.47;;;3.58;;
77038;SDS011;65970;50.476;4.840;2023-03-01T02:15:35;5.50;;;4.70;;
77038;SDS011;65970;50.476;4.840;2023-03-01T02:31:30;5.07;;;4.05;;
77038;SDS011;65970;50.476;4.840;2023-03-01T02:36:32;7.95;;;4.18;;
77038;SDS011;65970;50.476;4.840;2023-03-01T02:41:48;7.03;;;4.05;;
77038;SDS011;65970;50.476;4.840;2023-03-01T02:46:52;5.65;;;4.18;;
77038;SDS011;65970;50.476;4.840;2023-03-01T02:57:28;6.28;;;4.35;;
77038;SDS011;65970;50.476;4.840;2023-03-01T03:02:30;4.55;;;3.90;;
77038;SDS011;65970;50.476;4.840;2023-03-01T03:07:31;4.70;;;3.95;;
77038;SDS011;65970;50.476;4.840;2023-03-01T03:12:32;5.43;;;4.00;;
77038;SDS011;65970;50.476;4.840;2023-03-01T03:17:33;4.55;;;3.90;;
77038;SDS011;65970;50.476;4.840;2023-03-01T03:22:33;5.95;;;4.38;;
77038;SDS011;65970;50.476;4.840;2023-03-01T03:27:34;8.20;;;4.57;;
77038;SDS011;65970;50.476;4.840;2023-03-01T03:32:35;5.20;;;3.92;;
77038;SDS011;65970;50.476;4.840;2023-03-01T03:37:37;6.20;;;3.78;;
77038;SDS011;65970;50.476;4.840;2023-03-01T03:42:38;7.88;;;4.35;;
77038;SDS011;65970;50.476;4.840;2023-03-01T03:47:39;5.00;;;3.72;;
77038;SDS011;65970;50.476;4.840;2023-03-01T03:52:39;6.10;;;4.18;;
77038;SDS011;65970;50.476;4.840;2023-03-01T03:57:40;7.90;;;4.95;;
77038;SDS011;65970;50.476;4.840;2023-03-01T04:02:42;5.47;;;4.53;;
77038;SDS011;65970;50.476;4.840;2023-03-01T04:07:43;5.40;;;4.05;;
77038;SDS011;65970;50.476;4.840;2023-03-01T04:12:44;6.93;;;5.25;;
77038;SDS011;65970;50.476;4.840;2023-03-01T04:17:46;6.82;;;4.15;;
77038;SDS011;65970;50.476;4.840;2023-03-01T04:22:46;7.00;;;5.13;;
77038;SDS011;65970;50.476;4.840;2023-03-01T04:27:47;3.92;;;3.60;;
77038;SDS011;65970;50.476;4.840;2023-03-01T04:32:47;6.20;;;5.32;;
77038;SDS011;65970;50.476;4.840;2023-03-01T04:37:48;6.70;;;4.07;;
77038;SDS011;65970;50.476;4.840;2023-03-01T04:42:49;7.35;;;4.57;;
77038;SDS011;65970;50.476;4.840;2023-03-01T04:47:50;6.85;;;4.55;;
77038;SDS011;65970;50.476;4.840;2023-03-01T04:52:50;5.10;;;4.50;;
77038;SDS011;65970;50.476;4.840;2023-03-01T04:57:52;7.88;;;4.13;;
77038;SDS011;65970;50.476;4.840;2023-03-01T05:02:56;6.15;;;4.07;;
77038;SDS011;65970;50.476;4.840;2023-03-01T05:08:02;5.30;;;4.80;;
77038;SDS011;65970;50.476;4.840;2023-03-01T05:13:04;5.45;;;4.25;;
77038;SDS011;65970;50.476;4.840;2023-03-01T05:18:05;10.95;;;4.88;;
77038;SDS011;65970;50.476;4.840;2023-03-01T05:23:06;7.85;;;4.85;;
77038;SDS011;65970;50.476;4.840;2023-03-01T05:28:07;6.65;;;4.65;;
77038;SDS011;65970;50.476;4.840;2023-03-01T05:33:11;5.78;;;3.75;;
77038;SDS011;65970;50.476;4.840;2023-03-01T05:38:12;12.52;;;4.65;;
77038;SDS011;65970;50.476;4.840;2023-03-01T05:43:13;5.90;;;4.20;;
77038;SDS011;65970;50.476;4.840;2023-03-01T05:48:15;6.80;;;4.88;;
77038;SDS011;65970;50.476;4.840;2023-03-01T05:53:16;4.25;;;3.78;;
77038;SDS011;65970;50.476;4.840;2023-03-01T05:58:19;8.65;;;4.57;;
77038;SDS011;65970;50.476;4.840;2023-03-01T06:03:20;6.15;;;3.88;;
77038;SDS011;65970;50.476;4.840;2023-03-01T06:08:20;5.72;;;5.13;;
77038;SDS011;65970;50.476;4.840;2023-03-01T06:13:21;8.70;;;4.80;;
77038;SDS011;65970;50.476;4.840;2023-03-01T06:18:22;5.00;;;3.72;;
77038;SDS011;65970;50.476;4.840;2023-03-01T06:23:23;7.43;;;4.85;;
77038;SDS011;65970;50.476;4.840;2023-03-01T06:28:24;5.57;;;4.78;;
77038;SDS011;65970;50.476;4.840;2023-03-01T06:33:24;6.28;;;4.57;;
77038;SDS011;65970;50.476;4.840;2023-03-01T06:38:25;6.70;;;4.50;;
77038;SDS011;65970;50.476;4.840;2023-03-01T06:43:25;6.55;;;4.10;;
77038;SDS011;65970;50.476;4.840;2023-03-01T06:48:26;5.32;;;4.43;;
77038;SDS011;65970;50.476;4.840;2023-03-01T06:53:27;6.20;;;5.00;;
77038;SDS011;65970;50.476;4.840;2023-03-01T06:58:28;8.00;;;5.40;;
77038;SDS011;65970;50.476;4.840;2023-03-01T07:03:29;7.18;;;5.25;;
77038;SDS011;65970;50.476;4.840;2023-03-01T07:08:30;6.78;;;5.88;;
77038;SDS011;65970;50.476;4.840;2023-03-01T07:13:30;14.40;;;5.07;;
77038;SDS011;65970;50.476;4.840;2023-03-01T07:18:31;6.38;;;4.85;;
77038;SDS011;65970;50.476;4.840;2023-03-01T07:23:33;8.32;;;4.97;;
77038;SDS011;65970;50.476;4.840;2023-03-01T07:28:33;7.63;;;4.90;;
77038;SDS011;65970;50.476;4.840;2023-03-01T07:33:34;7.10;;;5.07;;
77038;SDS011;65970;50.476;4.840;2023-03-01T07:38:34;10.45;;;7.82;;
77038;SDS011;65970;50.476;4.840;2023-03-01T07:43:35;7.32;;;6.57;;
77038;SDS011;65970;50.476;4.840;2023-03-01T07:48:36;7.47;;;5.93;;
77038;SDS011;65970;50.476;4.840;2023-03-01T07:53:36;9.48;;;5.03;;
77038;SDS011;65970;50.476;4.840;2023-03-01T07:58:37;9.15;;;5.65;;
77038;SDS011;65970;50.476;4.840;2023-03-01T08:03:39;7.93;;;5.87;;
77038;SDS011;65970;50.476;4.840;2023-03-01T08:08:40;9.60;;;5.72;;
77038;SDS011;65970;50.476;4.840;2023-03-01T08:13:42;9.48;;;5.95;;
77038;SDS011;65970;50.476;4.840;2023-03-01T08:18:43;7.82;;;5.95;;
77038;SDS011;65970;50.476;4.840;2023-03-01T08:23:44;10.10;;;6.97;;
77038;SDS011;65970;50.476;4.840;2023-03-01T08:28:45;7.78;;;5.95;;
77038;SDS011;65970;50.476;4.840;2023-03-01T08:33:46;8.40;;;6.78;;
77038;SDS011;65970;50.476;4.840;2023-03-01T08:38:48;12.15;;;6.03;;
77038;SDS011;65970;50.476;4.840;2023-03-01T08:43:49;7.85;;;5.80;;
77038;SDS011;65970;50.476;4.840;2023-03-01T08:48:50;11.98;;;7.20;;
77038;SDS011;65970;50.476;4.840;2023-03-01T08:53:50;17.00;;;8.38;;
77038;SDS011;65970;50.476;4.840;2023-03-01T08:58:51;7.50;;;5.75;;
77038;SDS011;65970;50.476;4.840;2023-03-01T09:03:51;11.18;;;6.82;;
77038;SDS011;65970;50.476;4.840;2023-03-01T09:08:52;8.30;;;5.93;;
77038;SDS011;65970;50.476;4.840;2023-03-01T09:13:53;8.80;;;5.78;;
77038;SDS011;65970;50.476;4.840;2023-03-01T09:18:54;10.30;;;6.13;;
77038;SDS011;65970;50.476;4.840;2023-03-01T09:23:55;9.57;;;6.18;;
77038;SDS011;65970;50.476;4.840;2023-03-01T09:28:56;7.55;;;5.35;;
77038;SDS011;65970;50.476;4.840;2023-03-01T09:33:57;8.00;;;5.93;;
77038;SDS011;65970;50.476;4.840;2023-03-01T09:38:58;9.68;;;5.85;;
77038;SDS011;65970;50.476;4.840;2023-03-01T09:44:00;9.20;;;5.60;;
77038;SDS011;65970;50.476;4.840;2023-03-01T09:49:18;8.20;;;5.70;;
77038;SDS011;65970;50.476;4.840;2023-03-01T09:59:40;9.90;;;5.80;;
77038;SDS011;65970;50.476;4.840;2023-03-01T10:10:27;12.30;;;6.97;;
77038;SDS011;65970;50.476;4.840;2023-03-01T10:15:35;11.15;;;7.35;;
77038;SDS011;65970;50.476;4.840;2023-03-01T10:20:51;9.43;;;6.32;;
77038;SDS011;65970;50.476;4.840;2023-03-01T10:26:09;10.65;;;6.63;;
77038;SDS011;65970;50.476;4.840;2023-03-01T10:31:26;11.73;;;7.07;;
77038;SDS011;65970;50.476;4.840;2023-03-01T10:36:31;10.05;;;7.00;;
77038;SDS011;65970;50.476;4.840;2023-03-01T10:41:33;10.27;;;7.80;;
77038;SDS011;65970;50.476;4.840;2023-03-01T10:46:40;9.95;;;7.07;;
77038;SDS011;65970;50.476;4.840;2023-03-01T10:51:41;11.35;;;6.68;;
77038;SDS011;65970;50.476;4.840;2023-03-01T10:56:47;10.75;;;6.22;;
77038;SDS011;65970;50.476;4.840;2023-03-01T11:02:00;11.73;;;6.25;;
77038;SDS011;65970;50.476;4.840;2023-03-01T11:07:18;7.72;;;6.15;;
77038;SDS011;65970;50.476;4.840;2023-03-01T11:12:20;9.38;;;6.15;;
77038;SDS011;65970;50.476;4.840;2023-03-01T11:17:23;12.57;;;6.18;;
77038;SDS011;65970;50.476;4.840;2023-03-01T11:22:26;10.95;;;6.60;;
77038;SDS011;65970;50.476;4.840;2023-03-01T11:27:30;7.75;;;5.03;;
77038;SDS011;65970;50.476;4.840;2023-03-01T11:32:34;12.75;;;6.55;;
77038;SDS011;65970;50.476;4.840;2023-03-01T11:37:41;11.57;;;8.05;;
77038;SDS011;65970;50.476;4.840;2023-03-01T12:25:48;12.20;;;7.63;;
77038;SDS011;65970;50.476;4.840;2023-03-01T12:37:02;9.80;;;6.93;;
77038;SDS011;65970;50.476;4.840;2023-03-01T12:52:09;10.77;;;6.80;;
77038;SDS011;65970;50.476;4.840;2023-03-01T12:57:31;8.85;;;6.80;;
77038;SDS011;65970;50.476;4.840;2023-03-01T13:07:58;10.43;;;6.82;;
77038;SDS011;65970;50.476;4.840;2023-03-01T13:13:23;11.20;;;6.38;;
77038;SDS011;65970;50.476;4.840;2023-03-01T13:18:27;10.13;;;6.32;;
77038;SDS011;65970;50.476;4.840;2023-03-01T13:23:30;8.30;;;5.82;;
77038;SDS011;65970;50.476;4.840;2023-03-01T13:39:05;11.32;;;6.53;;
77038;SDS011;65970;50.476;4.840;2023-03-01T13:44:38;8.90;;;6.25;;
77038;SDS011;65970;50.476;4.840;2023-03-01T13:54:47;8.80;;;5.88;;
77038;SDS011;65970;50.476;4.840;2023-03-01T13:59:48;8.10;;;6.38;;
77038;SDS011;65970;50.476;4.840;2023-03-01T14:04:58;10.10;;;7.05;;
77038;SDS011;65970;50.476;4.840;2023-03-01T14:10:00;8.48;;;5.55;;
77038;SDS011;65970;50.476;4.840;2023-03-01T14:15:10;8.05;;;5.90;;
77038;SDS011;65970;50.476;4.840;2023-03-01T14:20:40;8.48;;;5.43;;
77038;SDS011;65970;50.476;4.840;2023-03-01T14:25:50;8.88;;;6.38;;
77038;SDS011;65970;50.476;4.840;2023-03-01T14:30:54;6.97;;;5.10;;
77038;SDS011;65970;50.476;4.840;2023-03-01T14:36:00;8.80;;;5.90;;
77038;SDS011;65970;50.476;4.840;2023-03-01T14:41:18;7.70;;;5.55;;
77038;SDS011;65970;50.476;4.840;2023-03-01T14:46:41;12.63;;;6.38;;
77038;SDS011;65970;50.476;4.840;2023-03-01T14:51:55;7.97;;;5.18;;
77038;SDS011;65970;50.476;4.840;2023-03-01T14:57:00;7.47;;;5.05;;
77038;SDS011;65970;50.476;4.840;2023-03-01T15:02:01;8.68;;;5.05;;
77038;SDS011;65970;50.476;4.840;2023-03-01T15:07:02;8.48;;;5.80;;
77038;SDS011;65970;50.476;4.840;2023-03-01T15:22:33;10.00;;;5.63;;
77038;SDS011;65970;50.476;4.840;2023-03-01T15:27:35;9.52;;;5.93;;
77038;SDS011;65970;50.476;4.840;2023-03-01T15:32:36;6.43;;;5.57;;
77038;SDS011;65970;50.476;4.840;2023-03-01T15:37:47;9.27;;;6.65;;
77038;SDS011;65970;50.476;4.840;2023-03-01T15:42:48;8.73;;;5.97;;
77038;SDS011;65970;50.476;4.840;2023-03-01T15:47:49;8.93;;;6.03;;
77038;SDS011;65970;50.476;4.840;2023-03-01T15:52:52;7.47;;;5.38;;
77038;SDS011;65970;50.476;4.840;2023-03-01T16:03:05;11.55;;;7.15;;
77038;SDS011;65970;50.476;4.840;2023-03-01T16:08:06;8.60;;;6.07;;
77038;SDS011;65970;50.476;4.840;2023-03-01T16:13:07;10.13;;;6.70;;
77038;SDS011;65970;50.476;4.840;2023-03-01T16:18:08;11.13;;;6.88;;
77038;SDS011;65970;50.476;4.840;2023-03-01T16:23:10;11.27;;;7.32;;
77038;SDS011;65970;50.476;4.840;2023-03-01T16:28:11;13.02;;;7.47;;
77038;SDS011;65970;50.476;4.840;2023-03-01T16:33:11;10.40;;;6.35;;
77038;SDS011;65970;50.476;4.840;2023-03-01T16:38:12;10.65;;;6.00;;
77038;SDS011;65970;50.476;4.840;2023-03-01T16:43:12;9.30;;;5.93;;
77038;SDS011;65970;50.476;4.840;2023-03-01T16:48:13;10.02;;;5.97;;
77038;SDS011;65970;50.476;4.840;2023-03-01T16:53:14;7.13;;;5.20;;
77038;SDS011;65970;50.476;4.840;2023-03-01T16:58:14;9.10;;;6.25;;
77038;SDS011;65970;50.476;4.840;2023-03-01T17:03:15;9.07;;;6.38;;
77038;SDS011;65970;50.476;4.840;2023-03-01T17:08:15;8.07;;;5.22;;
77038;SDS011;65970;50.476;4.840;2023-03-01T17:13:16;7.28;;;4.57;;
77038;SDS011;65970;50.476;4.840;2023-03-01T17:18:17;9.48;;;5.55;;
77038;SDS011;65970;50.476;4.840;2023-03-01T17:23:17;9.57;;;5.82;;
77038;SDS011;65970;50.476;4.840;2023-03-01T17:28:18;9.88;;;5.30;;
77038;SDS011;65970;50.476;4.840;2023-03-01T17:33:18;7.50;;;5.10;;
77038;SDS011;65970;50.476;4.840;2023-03-01T17:38:19;11.43;;;5.22;;
77038;SDS011;65970;50.476;4.840;2023-03-01T17:43:19;10.32;;;6.28;;
77038;SDS011;65970;50.476;4.840;2023-03-01T17:48:22;9.63;;;5.45;;
77038;SDS011;65970;50.476;4.840;2023-03-01T17:53:22;6.78;;;4.65;;
77038;SDS011;65970;50.476;4.840;2023-03-01T17:58:23;8.98;;;5.05;;
77038;SDS011;65970;50.476;4.840;2023-03-01T18:03:23;9.82;;;4.97;;
77038;SDS011;65970;50.476;4.840;2023-03-01T18:08:25;13.75;;;6.32;;
77038;SDS011;65970;50.476;4.840;2023-03-01T18:13:35;7.63;;;5.55;;
77038;SDS011;65970;50.476;4.840;2023-03-01T18:18:36;9.68;;;6.15;;
77038;SDS011;65970;50.476;4.840;2023-03-01T18:23:38;9.82;;;6.38;;
77038;SDS011;65970;50.476;4.840;2023-03-01T18:28:39;10.80;;;5.63;;
77038;SDS011;65970;50.476;4.840;2023-03-01T18:33:40;10.93;;;5.30;;
77038;SDS011;65970;50.476;4.840;2023-03-01T18:38:43;10.32;;;5.28;;
77038;SDS011;65970;50.476;4.840;2023-03-01T18:43:44;6.97;;;4.78;;
77038;SDS011;65970;50.476;4.840;2023-03-01T19:35:17;8.75;;;5.97;;
77038;SDS011;65970;50.476;4.840;2023-03-01T19:40:18;8.00;;;5.57;;
77038;SDS011;65970;50.476;4.840;2023-03-01T19:45:19;7.50;;;4.55;;
77038;SDS011;65970;50.476;4.840;2023-03-01T19:50:23;10.38;;;5.78;;
77038;SDS011;65970;50.476;4.840;2023-03-01T19:55:26;9.82;;;5.57;;
77038;SDS011;65970;50.476;4.840;2023-03-01T20:00:26;11.30;;;6.13;;
77038;SDS011;65970;50.476;4.840;2023-03-01T20:05:27;11.48;;;7.93;;
77038;SDS011;65970;50.476;4.840;2023-03-01T20:20:54;29.05;;;13.35;;
77038;SDS011;65970;50.476;4.840;2023-03-01T20:26:05;40.90;;;17.38;;
77038;SDS011;65970;50.476;4.840;2023-03-01T20:31:09;20.92;;;12.23;;
77038;SDS011;65970;50.476;4.840;2023-03-01T20:36:11;22.80;;;10.00;;
77038;SDS011;65970;50.476;4.840;2023-03-01T20:41:12;12.30;;;7.72;;
77038;SDS011;65970;50.476;4.840;2023-03-01T20:46:13;9.60;;;5.32;;
